sensor_id;sensor_type;location;lat;lon;timestamp;temperature;humidity
12634;DHT22;6382;48.614;8.880;2022-11-20T00:01:22;6.20;99.90
12634;DHT22;6382;48.614;8.880;2022-11-20T00:03:50;4.00;99.90
12634;DHT22;6382;48.614;8.880;2022-11-20T00:06:17;4.00;99.90
12634;DHT22;6382;48.614;8.880;2022-11-20T00:08:45;3.90;99.90
12634;DHT22;6382;48.614;8.880;2022-11-20T00:11:13;3.90;99.90
12634;DHT22;6382;48.614;8.880;2022-11-20T00:13:45;6.60;99.90
12634;DHT22;6382;48.614;8.880;2022-11-20T00:16:13;3.90;99.90
12634;DHT22;6382;48.614;8.880;2022-11-20T00:18:40;3.90;99.90
12634;DHT22;6382;48.614;8.880;2022-11-20T00:21:10;4.00;99.90
12634;DHT22;6382;48.614;8.880;2022-11-20T00:23:37;4.00;99.90
12634;DHT22;6382;48.614;8.880;2022-11-20T00:26:05;4.10;99.90
12634;DHT22;6382;48.614;8.880;2022-11-20T00:28:32;4.00;99.90
12634;DHT22;6382;48.614;8.880;2022-11-20T00:31:06;4.00;99.90
12634;DHT22;6382;48.614;8.880;2022-11-20T00:33:33;4.00;99.90
12634;DHT22;6382;48.614;8.880;2022-11-20T00:36:03;5.40;99.90
12634;DHT22;6382;48.614;8.880;2022-11-20T00:38:31;4.00;99.90
12634;DHT22;6382;48.614;8.880;2022-11-20T00:40:58;3.90;99.90
12634;DHT22;6382;48.614;8.880;2022-11-20T00:43:25;3.90;99.90
12634;DHT22;6382;48.614;8.880;2022-11-20T00:45:58;4.00;99.90
12634;DHT22;6382;48.614;8.880;2022-11-20T00:48:25;3.90;99.90
12634;DHT22;6382;48.614;8.880;2022-11-20T00:50:52;3.90;99.90
12634;DHT22;6382;48.614;8.880;2022-11-20T00:53:19;3.90;99.90
12634;DHT22;6382;48.614;8.880;2022-11-20T00:55:56;5.70;99.90
12634;DHT22;6382;48.614;8.880;2022-11-20T00:58:24;3.70;99.90
12634;DHT22;6382;48.614;8.880;2022-11-20T01:00:51;3.80;99.90
12634;DHT22;6382;48.614;8.880;2022-11-20T01:03:18;3.70;99.90
12634;DHT22;6382;48.614;8.880;2022-11-20T01:05:52;3.80;99.90
12634;DHT22;6382;48.614;8.880;2022-11-20T01:08:18;3.60;99.90
12634;DHT22;6382;48.614;8.880;2022-11-20T01:10:45;3.40;99.90
12634;DHT22;6382;48.614;8.880;2022-11-20T01:13:12;3.20;99.90
12634;DHT22;6382;48.614;8.880;2022-11-20T01:16:01;3.30;99.90
12634;DHT22;6382;48.614;8.880;2022-11-20T01:18:29;3.20;99.90
12634;DHT22;6382;48.614;8.880;2022-11-20T01:20:59;4.60;99.90
12634;DHT22;6382;48.614;8.880;2022-11-20T01:23:26;3.30;99.90
12634;DHT22;6382;48.614;8.880;2022-11-20T01:25:53;3.40;99.90
12634;DHT22;6382;48.614;8.880;2022-11-20T01:28:19;3.40;99.90
12634;DHT22;6382;48.614;8.880;2022-11-20T01:30:46;3.30;99.90
12634;DHT22;6382;48.614;8.880;2022-11-20T01:33:13;3.20;99.90
12634;DHT22;6382;48.614;8.880;2022-11-20T01:35:40;3.20;99.90
12634;DHT22;6382;48.614;8.880;2022-11-20T01:38:06;3.20;99.90
12634;DHT22;6382;48.614;8.880;2022-11-20T01:40:33;3.20;99.90
12634;DHT22;6382;48.614;8.880;2022-11-20T01:43:06;3.20;99.90
12634;DHT22;6382;48.614;8.880;2022-11-20T01:48:35;3.20;99.90
12634;DHT22;6382;48.614;8.880;2022-11-20T01:51:03;3.20;99.90
12634;DHT22;6382;48.614;8.880;2022-11-20T01:53:32;3.20;99.90
12634;DHT22;6382;48.614;8.880;2022-11-20T01:56:00;3.10;99.90
12634;DHT22;6382;48.614;8.880;2022-11-20T01:58:28;3.10;99.90
12634;DHT22;6382;48.614;8.880;2022-11-20T02:00:56;2.90;99.90
12634;DHT22;6382;48.614;8.880;2022-11-20T02:03:23;2.80;99.90
12634;DHT22;6382;48.614;8.880;2022-11-20T02:06:01;2.60;99.90
12634;DHT22;6382;48.614;8.880;2022-11-20T02:08:30;2.60;99.90
12634;DHT22;6382;48.614;8.880;2022-11-20T02:10:57;2.60;99.90
12634;DHT22;6382;48.614;8.880;2022-11-20T02:13:24;2.70;99.90
12634;DHT22;6382;48.614;8.880;2022-11-20T02:16:14;2.90;99.90
12634;DHT22;6382;48.614;8.880;2022-11-20T02:18:42;2.80;99.90
12634;DHT22;6382;48.614;8.880;2022-11-20T02:21:12;2.80;99.90
12634;DHT22;6382;48.614;8.880;2022-11-20T02:24:02;2.80;99.90
12634;DHT22;6382;48.614;8.880;2022-11-20T02:26:28;2.80;99.90
12634;DHT22;6382;48.614;8.880;2022-11-20T02:28:55;2.90;99.90
12634;DHT22;6382;48.614;8.880;2022-11-20T02:31:22;2.90;99.90
12634;DHT22;6382;48.614;8.880;2022-11-20T02:33:53;3.00;99.90
12634;DHT22;6382;48.614;8.880;2022-11-20T02:36:20;3.10;99.90
12634;DHT22;6382;48.614;8.880;2022-11-20T02:38:47;5.60;99.90
12634;DHT22;6382;48.614;8.880;2022-11-20T02:41:15;5.50;99.90
12634;DHT22;6382;48.614;8.880;2022-11-20T02:43:41;3.30;99.90
12634;DHT22;6382;48.614;8.880;2022-11-20T02:46:08;3.30;99.90
12634;DHT22;6382;48.614;8.880;2022-11-20T02:48:35;3.30;99.90
12634;DHT22;6382;48.614;8.880;2022-11-20T02:51:01;3.30;99.90
12634;DHT22;6382;48.614;8.880;2022-11-20T02:53:28;3.30;99.90
12634;DHT22;6382;48.614;8.880;2022-11-20T02:55:55;3.20;99.90
12634;DHT22;6382;48.614;8.880;2022-11-20T02:58:22;3.20;99.90
12634;DHT22;6382;48.614;8.880;2022-11-20T03:00:48;3.20;99.90
12634;DHT22;6382;48.614;8.880;2022-11-20T03:03:15;3.20;99.90
12634;DHT22;6382;48.614;8.880;2022-11-20T03:05:42;3.20;99.90
12634;DHT22;6382;48.614;8.880;2022-11-20T03:08:08;3.20;99.90
12634;DHT22;6382;48.614;8.880;2022-11-20T03:10:35;3.20;99.90
12634;DHT22;6382;48.614;8.880;2022-11-20T03:13:01;3.30;99.90
12634;DHT22;6382;48.614;8.880;2022-11-20T03:15:28;3.20;99.90
12634;DHT22;6382;48.614;8.880;2022-11-20T03:17:55;3.20;99.90
12634;DHT22;6382;48.614;8.880;2022-11-20T03:20:22;3.20;99.90
12634;DHT22;6382;48.614;8.880;2022-11-20T03:22:49;4.50;99.90
12634;DHT22;6382;48.614;8.880;2022-11-20T03:25:16;3.30;99.90
12634;DHT22;6382;48.614;8.880;2022-11-20T03:27:42;3.30;99.90
12634;DHT22;6382;48.614;8.880;2022-11-20T03:30:09;3.30;99.90
12634;DHT22;6382;48.614;8.880;2022-11-20T03:32:36;3.30;99.90
12634;DHT22;6382;48.614;8.880;2022-11-20T03:35:03;3.30;99.90
12634;DHT22;6382;48.614;8.880;2022-11-20T03:37:29;3.30;99.90
12634;DHT22;6382;48.614;8.880;2022-11-20T03:39:56;3.30;99.90
12634;DHT22;6382;48.614;8.880;2022-11-20T03:42:23;3.40;99.90
12634;DHT22;6382;48.614;8.880;2022-11-20T03:45:08;3.50;99.90
12634;DHT22;6382;48.614;8.880;2022-11-20T03:47:35;3.40;99.90
12634;DHT22;6382;48.614;8.880;2022-11-20T03:50:01;3.40;99.90
12634;DHT22;6382;48.614;8.880;2022-11-20T03:52:28;3.50;99.90
12634;DHT22;6382;48.614;8.880;2022-11-20T03:54:55;3.50;99.90
12634;DHT22;6382;48.614;8.880;2022-11-20T03:57:22;2.50;99.90
12634;DHT22;6382;48.614;8.880;2022-11-20T03:59:48;3.50;99.90
12634;DHT22;6382;48.614;8.880;2022-11-20T04:02:15;4.50;99.90
12634;DHT22;6382;48.614;8.880;2022-11-20T04:04:42;3.60;99.90
12634;DHT22;6382;48.614;8.880;2022-11-20T04:07:08;3.70;99.90
12634;DHT22;6382;48.614;8.880;2022-11-20T04:09:35;3.80;99.90
12634;DHT22;6382;48.614;8.880;2022-11-20T04:12:02;4.10;99.90
12634;DHT22;6382;48.614;8.880;2022-11-20T04:14:28;3.70;99.90
12634;DHT22;6382;48.614;8.880;2022-11-20T04:16:55;5.30;99.90
12634;DHT22;6382;48.614;8.880;2022-11-20T04:19:22;3.80;99.90
12634;DHT22;6382;48.614;8.880;2022-11-20T04:21:49;3.80;99.90
12634;DHT22;6382;48.614;8.880;2022-11-20T04:24:15;3.80;99.90
12634;DHT22;6382;48.614;8.880;2022-11-20T04:26:42;3.90;99.90
12634;DHT22;6382;48.614;8.880;2022-11-20T04:29:10;3.90;99.90
12634;DHT22;6382;48.614;8.880;2022-11-20T04:31:37;3.90;99.90
12634;DHT22;6382;48.614;8.880;2022-11-20T04:34:05;4.00;99.90
12634;DHT22;6382;48.614;8.880;2022-11-20T04:36:32;4.00;99.90
12634;DHT22;6382;48.614;8.880;2022-11-20T04:39:00;3.90;99.90
12634;DHT22;6382;48.614;8.880;2022-11-20T04:41:28;3.90;99.90
12634;DHT22;6382;48.614;8.880;2022-11-20T04:43:56;3.90;99.90
12634;DHT22;6382;48.614;8.880;2022-11-20T04:46:26;3.80;99.90
12634;DHT22;6382;48.614;8.880;2022-11-20T04:48:53;3.80;99.90
12634;DHT22;6382;48.614;8.880;2022-11-20T04:51:20;3.80;99.90
12634;DHT22;6382;48.614;8.880;2022-11-20T04:53:47;4.70;99.90
12634;DHT22;6382;48.614;8.880;2022-11-20T04:56:14;3.80;99.90
12634;DHT22;6382;48.614;8.880;2022-11-20T04:58:41;3.80;99.90
12634;DHT22;6382;48.614;8.880;2022-11-20T05:01:09;3.80;99.90
12634;DHT22;6382;48.614;8.880;2022-11-20T05:03:36;3.80;99.90
12634;DHT22;6382;48.614;8.880;2022-11-20T05:06:08;4.20;99.90
12634;DHT22;6382;48.614;8.880;2022-11-20T05:08:35;3.90;99.90
12634;DHT22;6382;48.614;8.880;2022-11-20T05:11:06;3.90;99.90
12634;DHT22;6382;48.614;8.880;2022-11-20T05:13:33;3.90;99.90
12634;DHT22;6382;48.614;8.880;2022-11-20T05:16:03;4.00;99.90
12634;DHT22;6382;48.614;8.880;2022-11-20T05:18:30;4.00;99.90
12634;DHT22;6382;48.614;8.880;2022-11-20T05:20:57;6.20;99.90
12634;DHT22;6382;48.614;8.880;2022-11-20T05:23:24;5.90;99.90
12634;DHT22;6382;48.614;8.880;2022-11-20T05:25:53;4.20;99.90
12634;DHT22;6382;48.614;8.880;2022-11-20T05:28:25;4.10;99.90
12634;DHT22;6382;48.614;8.880;2022-11-20T05:30:52;4.90;99.90
12634;DHT22;6382;48.614;8.880;2022-11-20T05:33:19;4.20;99.90
12634;DHT22;6382;48.614;8.880;2022-11-20T05:35:45;4.10;99.90
12634;DHT22;6382;48.614;8.880;2022-11-20T05:38:12;4.10;99.90
12634;DHT22;6382;48.614;8.880;2022-11-20T05:40:39;4.10;99.90
12634;DHT22;6382;48.614;8.880;2022-11-20T05:43:05;4.10;99.90
12634;DHT22;6382;48.614;8.880;2022-11-20T05:45:32;4.10;99.90
12634;DHT22;6382;48.614;8.880;2022-11-20T05:47:59;4.00;99.90
12634;DHT22;6382;48.614;8.880;2022-11-20T05:50:29;5.80;99.90
12634;DHT22;6382;48.614;8.880;2022-11-20T05:52:59;4.10;99.90
12634;DHT22;6382;48.614;8.880;2022-11-20T05:55:26;4.10;99.90
12634;DHT22;6382;48.614;8.880;2022-11-20T05:57:53;4.10;99.90
12634;DHT22;6382;48.614;8.880;2022-11-20T06:00:21;4.10;99.90
12634;DHT22;6382;48.614;8.880;2022-11-20T06:02:47;4.20;99.90
12634;DHT22;6382;48.614;8.880;2022-11-20T06:05:14;4.20;99.90
12634;DHT22;6382;48.614;8.880;2022-11-20T06:07:41;5.80;99.90
12634;DHT22;6382;48.614;8.880;2022-11-20T06:10:08;4.20;99.90
12634;DHT22;6382;48.614;8.880;2022-11-20T06:12:34;4.20;99.90
12634;DHT22;6382;48.614;8.880;2022-11-20T06:15:01;4.30;99.90
12634;DHT22;6382;48.614;8.880;2022-11-20T06:17:28;5.70;99.90
12634;DHT22;6382;48.614;8.880;2022-11-20T06:19:54;4.30;99.90
12634;DHT22;6382;48.614;8.880;2022-11-20T06:22:21;4.40;99.90
12634;DHT22;6382;48.614;8.880;2022-11-20T06:24:48;4.40;99.90
12634;DHT22;6382;48.614;8.880;2022-11-20T06:27:15;4.40;99.90
12634;DHT22;6382;48.614;8.880;2022-11-20T06:29:42;4.50;99.90
12634;DHT22;6382;48.614;8.880;2022-11-20T06:32:09;4.50;99.90
12634;DHT22;6382;48.614;8.880;2022-11-20T06:34:35;4.60;99.90
12634;DHT22;6382;48.614;8.880;2022-11-20T06:37:02;6.90;99.90
12634;DHT22;6382;48.614;8.880;2022-11-20T06:39:29;4.50;99.90
12634;DHT22;6382;48.614;8.880;2022-11-20T06:41:55;4.50;99.90
12634;DHT22;6382;48.614;8.880;2022-11-20T06:44:24;4.50;99.90
12634;DHT22;6382;48.614;8.880;2022-11-20T06:46:51;6.00;99.90
12634;DHT22;6382;48.614;8.880;2022-11-20T06:49:17;6.10;99.90
12634;DHT22;6382;48.614;8.880;2022-11-20T06:51:44;4.50;99.90
12634;DHT22;6382;48.614;8.880;2022-11-20T06:54:11;4.50;99.90
12634;DHT22;6382;48.614;8.880;2022-11-20T06:56:37;4.50;99.90
12634;DHT22;6382;48.614;8.880;2022-11-20T06:59:05;4.50;99.90
12634;DHT22;6382;48.614;8.880;2022-11-20T07:01:32;6.70;99.90
12634;DHT22;6382;48.614;8.880;2022-11-20T07:03:59;4.50;99.90
12634;DHT22;6382;48.614;8.880;2022-11-20T07:06:25;4.50;99.90
12634;DHT22;6382;48.614;8.880;2022-11-20T07:08:52;4.60;99.90
12634;DHT22;6382;48.614;8.880;2022-11-20T07:11:19;4.50;99.90
12634;DHT22;6382;48.614;8.880;2022-11-20T07:13:45;4.60;99.90
12634;DHT22;6382;48.614;8.880;2022-11-20T07:16:12;7.00;99.90
12634;DHT22;6382;48.614;8.880;2022-11-20T07:18:39;4.70;99.90
12634;DHT22;6382;48.614;8.880;2022-11-20T07:21:06;4.70;99.90
12634;DHT22;6382;48.614;8.880;2022-11-20T07:23:33;4.70;99.90
12634;DHT22;6382;48.614;8.880;2022-11-20T07:26:07;4.70;99.90
12634;DHT22;6382;48.614;8.880;2022-11-20T07:28:34;4.70;99.90
12634;DHT22;6382;48.614;8.880;2022-11-20T07:31:02;4.70;99.90
12634;DHT22;6382;48.614;8.880;2022-11-20T07:33:28;4.80;99.90
12634;DHT22;6382;48.614;8.880;2022-11-20T07:35:55;4.80;99.90
12634;DHT22;6382;48.614;8.880;2022-11-20T07:38:22;7.70;99.90
12634;DHT22;6382;48.614;8.880;2022-11-20T07:40:52;4.90;99.90
12634;DHT22;6382;48.614;8.880;2022-11-20T07:43:19;4.90;99.90
12634;DHT22;6382;48.614;8.880;2022-11-20T07:45:46;5.00;99.90
12634;DHT22;6382;48.614;8.880;2022-11-20T07:48:12;6.70;99.90
12634;DHT22;6382;48.614;8.880;2022-11-20T07:50:39;6.50;99.90
12634;DHT22;6382;48.614;8.880;2022-11-20T07:53:06;5.00;99.90
12634;DHT22;6382;48.614;8.880;2022-11-20T07:55:32;5.00;99.90
12634;DHT22;6382;48.614;8.880;2022-11-20T07:57:59;5.10;99.90
12634;DHT22;6382;48.614;8.880;2022-11-20T08:00:26;5.00;99.90
12634;DHT22;6382;48.614;8.880;2022-11-20T08:02:53;5.00;99.90
12634;DHT22;6382;48.614;8.880;2022-11-20T08:05:19;5.10;99.90
12634;DHT22;6382;48.614;8.880;2022-11-20T08:07:46;5.10;99.90
12634;DHT22;6382;48.614;8.880;2022-11-20T08:10:14;5.10;99.90
12634;DHT22;6382;48.614;8.880;2022-11-20T08:12:48;5.10;99.90
12634;DHT22;6382;48.614;8.880;2022-11-20T08:15:33;5.10;99.90
12634;DHT22;6382;48.614;8.880;2022-11-20T08:18:04;5.20;99.90
12634;DHT22;6382;48.614;8.880;2022-11-20T08:20:51;5.20;99.90
12634;DHT22;6382;48.614;8.880;2022-11-20T08:23:18;7.50;99.90
12634;DHT22;6382;48.614;8.880;2022-11-20T08:25:48;5.30;99.90
12634;DHT22;6382;48.614;8.880;2022-11-20T08:28:15;6.40;99.90
12634;DHT22;6382;48.614;8.880;2022-11-20T08:30:47;7.00;99.90
12634;DHT22;6382;48.614;8.880;2022-11-20T08:33:14;5.50;99.90
12634;DHT22;6382;48.614;8.880;2022-11-20T08:35:40;5.50;99.90
12634;DHT22;6382;48.614;8.880;2022-11-20T08:38:08;5.50;99.90
12634;DHT22;6382;48.614;8.880;2022-11-20T08:40:35;5.50;99.90
12634;DHT22;6382;48.614;8.880;2022-11-20T08:43:01;5.60;99.90
12634;DHT22;6382;48.614;8.880;2022-11-20T08:45:28;5.70;99.90
12634;DHT22;6382;48.614;8.880;2022-11-20T08:48:00;7.80;99.90
12634;DHT22;6382;48.614;8.880;2022-11-20T08:50:27;5.80;99.90
12634;DHT22;6382;48.614;8.880;2022-11-20T08:52:54;5.90;99.90
12634;DHT22;6382;48.614;8.880;2022-11-20T08:55:20;5.90;99.90
12634;DHT22;6382;48.614;8.880;2022-11-20T08:57:47;7.60;99.90
12634;DHT22;6382;48.614;8.880;2022-11-20T09:00:16;6.00;99.90
12634;DHT22;6382;48.614;8.880;2022-11-20T09:02:43;5.90;99.90
12634;DHT22;6382;48.614;8.880;2022-11-20T09:05:10;6.00;99.90
12634;DHT22;6382;48.614;8.880;2022-11-20T09:07:36;6.00;99.90
12634;DHT22;6382;48.614;8.880;2022-11-20T09:10:03;6.10;99.90
12634;DHT22;6382;48.614;8.880;2022-11-20T09:12:49;6.00;99.90
12634;DHT22;6382;48.614;8.880;2022-11-20T09:15:17;6.00;99.90
12634;DHT22;6382;48.614;8.880;2022-11-20T09:17:53;8.60;99.90
12634;DHT22;6382;48.614;8.880;2022-11-20T09:20:20;5.90;99.90
12634;DHT22;6382;48.614;8.880;2022-11-20T09:22:47;6.00;99.90
12634;DHT22;6382;48.614;8.880;2022-11-20T09:25:13;5.90;99.90
12634;DHT22;6382;48.614;8.880;2022-11-20T09:27:40;5.90;99.90
12634;DHT22;6382;48.614;8.880;2022-11-20T09:30:10;5.90;99.90
12634;DHT22;6382;48.614;8.880;2022-11-20T09:32:38;5.90;99.90
12634;DHT22;6382;48.614;8.880;2022-11-20T09:35:05;5.90;99.90
12634;DHT22;6382;48.614;8.880;2022-11-20T09:37:32;5.80;99.90
12634;DHT22;6382;48.614;8.880;2022-11-20T09:39:59;5.90;99.90
12634;DHT22;6382;48.614;8.880;2022-11-20T09:42:37;6.00;99.90
12634;DHT22;6382;48.614;8.880;2022-11-20T09:45:11;5.90;99.90
12634;DHT22;6382;48.614;8.880;2022-11-20T09:50:33;5.90;99.90
12634;DHT22;6382;48.614;8.880;2022-11-20T09:55:29;5.90;99.90
12634;DHT22;6382;48.614;8.880;2022-11-20T09:57:57;6.00;99.90
12634;DHT22;6382;48.614;8.880;2022-11-20T10:00:24;6.00;99.90
12634;DHT22;6382;48.614;8.880;2022-11-20T10:03:00;6.10;99.90
12634;DHT22;6382;48.614;8.880;2022-11-20T10:05:31;6.10;99.90
12634;DHT22;6382;48.614;8.880;2022-11-20T10:08:17;6.20;99.90
12634;DHT22;6382;48.614;8.880;2022-11-20T10:10:46;6.20;99.90
12634;DHT22;6382;48.614;8.880;2022-11-20T10:13:38;6.30;99.90
12634;DHT22;6382;48.614;8.880;2022-11-20T10:23:48;6.30;99.90
12634;DHT22;6382;48.614;8.880;2022-11-20T10:26:22;6.40;99.90
12634;DHT22;6382;48.614;8.880;2022-11-20T10:29:01;6.40;99.90
12634;DHT22;6382;48.614;8.880;2022-11-20T10:31:54;6.50;99.90
12634;DHT22;6382;48.614;8.880;2022-11-20T10:34:23;6.50;99.90
12634;DHT22;6382;48.614;8.880;2022-11-20T10:36:58;7.60;99.90
12634;DHT22;6382;48.614;8.880;2022-11-20T10:39:32;6.60;99.90
12634;DHT22;6382;48.614;8.880;2022-11-20T10:42:00;6.70;99.90
12634;DHT22;6382;48.614;8.880;2022-11-20T10:44:28;6.70;99.90
12634;DHT22;6382;48.614;8.880;2022-11-20T10:47:17;8.50;99.90
12634;DHT22;6382;48.614;8.880;2022-11-20T10:49:48;7.00;99.90
12634;DHT22;6382;48.614;8.880;2022-11-20T10:52:20;7.10;99.90
12634;DHT22;6382;48.614;8.880;2022-11-20T11:00:25;7.30;99.90
12634;DHT22;6382;48.614;8.880;2022-11-20T11:02:52;7.40;99.90
12634;DHT22;6382;48.614;8.880;2022-11-20T11:05:27;7.40;99.90
12634;DHT22;6382;48.614;8.880;2022-11-20T11:07:57;7.50;99.90
12634;DHT22;6382;48.614;8.880;2022-11-20T11:10:36;7.60;99.90
12634;DHT22;6382;48.614;8.880;2022-11-20T11:13:07;7.50;99.90
12634;DHT22;6382;48.614;8.880;2022-11-20T11:15:45;7.60;99.90
12634;DHT22;6382;48.614;8.880;2022-11-20T11:18:22;7.50;99.90
12634;DHT22;6382;48.614;8.880;2022-11-20T11:20:52;7.50;99.90
12634;DHT22;6382;48.614;8.880;2022-11-20T11:23:38;7.60;99.90
12634;DHT22;6382;48.614;8.880;2022-11-20T11:26:06;7.60;99.90
12634;DHT22;6382;48.614;8.880;2022-11-20T11:28:33;9.70;99.90
12634;DHT22;6382;48.614;8.880;2022-11-20T11:31:00;9.10;99.90
12634;DHT22;6382;48.614;8.880;2022-11-20T11:33:31;8.80;99.90
12634;DHT22;6382;48.614;8.880;2022-11-20T11:35:59;7.70;99.90
12634;DHT22;6382;48.614;8.880;2022-11-20T11:40:59;7.60;99.90
12634;DHT22;6382;48.614;8.880;2022-11-20T11:43:26;7.50;99.90
12634;DHT22;6382;48.614;8.880;2022-11-20T11:49:10;7.40;99.90
12634;DHT22;6382;48.614;8.880;2022-11-20T11:54:24;7.30;99.90
12634;DHT22;6382;48.614;8.880;2022-11-20T11:56:53;7.40;99.90
12634;DHT22;6382;48.614;8.880;2022-11-20T11:59:26;7.20;99.90
12634;DHT22;6382;48.614;8.880;2022-11-20T12:01:57;7.10;99.90
12634;DHT22;6382;48.614;8.880;2022-11-20T12:07:04;7.10;99.90
12634;DHT22;6382;48.614;8.880;2022-11-20T12:09:54;7.30;99.90
12634;DHT22;6382;48.614;8.880;2022-11-20T12:12:24;7.30;99.90
12634;DHT22;6382;48.614;8.880;2022-11-20T12:14:54;7.50;99.90
12634;DHT22;6382;48.614;8.880;2022-11-20T12:17:21;7.50;99.90
12634;DHT22;6382;48.614;8.880;2022-11-20T12:19:48;7.50;99.90
12634;DHT22;6382;48.614;8.880;2022-11-20T12:25:02;7.70;99.90
12634;DHT22;6382;48.614;8.880;2022-11-20T12:32:43;7.90;99.90
12634;DHT22;6382;48.614;8.880;2022-11-20T12:37:46;7.80;99.90
12634;DHT22;6382;48.614;8.880;2022-11-20T12:40:35;7.70;99.90
12634;DHT22;6382;48.614;8.880;2022-11-20T12:46:10;7.60;99.90
12634;DHT22;6382;48.614;8.880;2022-11-20T12:53:49;7.40;99.90
12634;DHT22;6382;48.614;8.880;2022-11-20T13:06:46;7.20;99.90
12634;DHT22;6382;48.614;8.880;2022-11-20T13:09:16;7.30;99.90
12634;DHT22;6382;48.614;8.880;2022-11-20T13:19:31;7.50;99.90
12634;DHT22;6382;48.614;8.880;2022-11-20T13:21:58;7.50;99.90
12634;DHT22;6382;48.614;8.880;2022-11-20T13:24:26;7.50;99.90
12634;DHT22;6382;48.614;8.880;2022-11-20T13:27:00;7.50;99.90
12634;DHT22;6382;48.614;8.880;2022-11-20T13:29:29;7.40;99.90
12634;DHT22;6382;48.614;8.880;2022-11-20T13:32:03;7.40;99.90
12634;DHT22;6382;48.614;8.880;2022-11-20T13:34:33;7.40;99.90
12634;DHT22;6382;48.614;8.880;2022-11-20T13:37:00;8.10;99.90
12634;DHT22;6382;48.614;8.880;2022-11-20T13:39:28;8.80;99.90
12634;DHT22;6382;48.614;8.880;2022-11-20T13:41:56;7.30;99.90
12634;DHT22;6382;48.614;8.880;2022-11-20T13:44:25;9.30;99.90
12634;DHT22;6382;48.614;8.880;2022-11-20T13:46:53;7.20;99.90
12634;DHT22;6382;48.614;8.880;2022-11-20T13:49:27;6.40;99.90
12634;DHT22;6382;48.614;8.880;2022-11-20T14:02:13;6.90;99.90
12634;DHT22;6382;48.614;8.880;2022-11-20T14:04:42;8.10;99.90
12634;DHT22;6382;48.614;8.880;2022-11-20T14:07:09;6.80;99.90
12634;DHT22;6382;48.614;8.880;2022-11-20T14:09:36;6.70;99.90
12634;DHT22;6382;48.614;8.880;2022-11-20T14:12:03;6.70;99.90
12634;DHT22;6382;48.614;8.880;2022-11-20T14:14:30;6.70;99.90
12634;DHT22;6382;48.614;8.880;2022-11-20T14:17:15;6.70;99.90
12634;DHT22;6382;48.614;8.880;2022-11-20T14:19:43;6.60;99.90
12634;DHT22;6382;48.614;8.880;2022-11-20T14:22:17;6.60;99.90
12634;DHT22;6382;48.614;8.880;2022-11-20T14:24:48;6.50;99.90
12634;DHT22;6382;48.614;8.880;2022-11-20T14:27:16;6.40;99.90
12634;DHT22;6382;48.614;8.880;2022-11-20T14:29:44;6.40;99.90
12634;DHT22;6382;48.614;8.880;2022-11-20T14:32:13;6.30;99.90
12634;DHT22;6382;48.614;8.880;2022-11-20T14:34:41;6.30;99.90
12634;DHT22;6382;48.614;8.880;2022-11-20T14:37:13;8.40;99.90
12634;DHT22;6382;48.614;8.880;2022-11-20T14:39:48;6.20;99.90
12634;DHT22;6382;48.614;8.880;2022-11-20T14:42:15;6.20;99.90
12634;DHT22;6382;48.614;8.880;2022-11-20T14:44:42;7.20;99.90
12634;DHT22;6382;48.614;8.880;2022-11-20T14:47:10;6.10;99.90
12634;DHT22;6382;48.614;8.880;2022-11-20T14:49:38;6.10;99.90
12634;DHT22;6382;48.614;8.880;2022-11-20T14:52:13;7.40;99.90
12634;DHT22;6382;48.614;8.880;2022-11-20T14:54:44;6.00;99.90
12634;DHT22;6382;48.614;8.880;2022-11-20T14:57:21;6.00;99.90
12634;DHT22;6382;48.614;8.880;2022-11-20T14:59:48;6.00;99.90
12634;DHT22;6382;48.614;8.880;2022-11-20T15:02:15;6.00;99.90
12634;DHT22;6382;48.614;8.880;2022-11-20T15:04:49;5.90;99.90
12634;DHT22;6382;48.614;8.880;2022-11-20T15:07:26;5.80;99.90
12634;DHT22;6382;48.614;8.880;2022-11-20T15:12:30;5.70;99.90
12634;DHT22;6382;48.614;8.880;2022-11-20T15:14:57;6.90;99.90
12634;DHT22;6382;48.614;8.880;2022-11-20T15:17:24;5.50;99.90
12634;DHT22;6382;48.614;8.880;2022-11-20T15:19:51;6.80;99.90
12634;DHT22;6382;48.614;8.880;2022-11-20T15:22:18;5.50;99.90
12634;DHT22;6382;48.614;8.880;2022-11-20T15:24:44;5.50;99.90
12634;DHT22;6382;48.614;8.880;2022-11-20T15:27:11;7.20;99.90
12634;DHT22;6382;48.614;8.880;2022-11-20T15:29:38;5.40;99.90
12634;DHT22;6382;48.614;8.880;2022-11-20T15:32:05;5.30;99.90
12634;DHT22;6382;48.614;8.880;2022-11-20T15:34:38;5.30;99.90
12634;DHT22;6382;48.614;8.880;2022-11-20T15:37:05;5.20;99.90
12634;DHT22;6382;48.614;8.880;2022-11-20T15:39:31;5.30;99.90
12634;DHT22;6382;48.614;8.880;2022-11-20T15:41:58;6.40;99.90
12634;DHT22;6382;48.614;8.880;2022-11-20T15:44:25;5.30;99.90
12634;DHT22;6382;48.614;8.880;2022-11-20T15:46:52;5.20;99.90
12634;DHT22;6382;48.614;8.880;2022-11-20T15:49:18;5.40;99.90
12634;DHT22;6382;48.614;8.880;2022-11-20T15:51:46;5.10;99.90
12634;DHT22;6382;48.614;8.880;2022-11-20T15:54:15;5.20;99.90
12634;DHT22;6382;48.614;8.880;2022-11-20T15:56:43;5.20;99.90
12634;DHT22;6382;48.614;8.880;2022-11-20T15:59:10;5.20;99.90
12634;DHT22;6382;48.614;8.880;2022-11-20T16:01:37;5.30;99.90
12634;DHT22;6382;48.614;8.880;2022-11-20T16:04:04;5.20;99.90
12634;DHT22;6382;48.614;8.880;2022-11-20T16:06:31;5.20;99.90
12634;DHT22;6382;48.614;8.880;2022-11-20T16:08:58;5.20;99.90
12634;DHT22;6382;48.614;8.880;2022-11-20T16:11:25;5.30;99.90
12634;DHT22;6382;48.614;8.880;2022-11-20T16:13:51;5.30;99.90
12634;DHT22;6382;48.614;8.880;2022-11-20T16:16:37;5.30;99.90
12634;DHT22;6382;48.614;8.880;2022-11-20T16:19:05;5.30;99.90
12634;DHT22;6382;48.614;8.880;2022-11-20T16:21:32;7.70;99.90
12634;DHT22;6382;48.614;8.880;2022-11-20T16:26:26;5.40;99.90
12634;DHT22;6382;48.614;8.880;2022-11-20T16:28:53;5.40;99.90
12634;DHT22;6382;48.614;8.880;2022-11-20T16:31:20;5.40;99.90
12634;DHT22;6382;48.614;8.880;2022-11-20T16:33:51;7.70;99.90
12634;DHT22;6382;48.614;8.880;2022-11-20T16:36:18;5.40;99.90
12634;DHT22;6382;48.614;8.880;2022-11-20T16:38:45;2.50;99.90
12634;DHT22;6382;48.614;8.880;2022-11-20T16:41:12;5.40;99.90
12634;DHT22;6382;48.614;8.880;2022-11-20T16:43:43;7.40;99.90
12634;DHT22;6382;48.614;8.880;2022-11-20T16:46:10;5.50;99.90
12634;DHT22;6382;48.614;8.880;2022-11-20T16:48:37;6.80;99.90
12634;DHT22;6382;48.614;8.880;2022-11-20T16:51:04;5.50;99.90
12634;DHT22;6382;48.614;8.880;2022-11-20T16:53:33;5.50;99.90
12634;DHT22;6382;48.614;8.880;2022-11-20T16:56:10;5.50;99.90
12634;DHT22;6382;48.614;8.880;2022-11-20T16:58:36;5.40;99.90
12634;DHT22;6382;48.614;8.880;2022-11-20T17:01:06;5.50;99.90
12634;DHT22;6382;48.614;8.880;2022-11-20T17:03:36;5.40;99.90
12634;DHT22;6382;48.614;8.880;2022-11-20T17:06:38;5.50;99.90
12634;DHT22;6382;48.614;8.880;2022-11-20T17:08:57;5.40;99.90
12634;DHT22;6382;48.614;8.880;2022-11-20T17:11:24;5.40;99.90
12634;DHT22;6382;48.614;8.880;2022-11-20T17:13:51;5.40;99.90
12634;DHT22;6382;48.614;8.880;2022-11-20T17:16:18;5.50;99.90
12634;DHT22;6382;48.614;8.880;2022-11-20T17:18:45;5.90;99.90
12634;DHT22;6382;48.614;8.880;2022-11-20T17:21:12;5.50;99.90
12634;DHT22;6382;48.614;8.880;2022-11-20T17:23:40;5.50;99.90
12634;DHT22;6382;48.614;8.880;2022-11-20T17:26:08;5.50;99.90
12634;DHT22;6382;48.614;8.880;2022-11-20T17:28:35;5.50;99.90
12634;DHT22;6382;48.614;8.880;2022-11-20T17:31:03;6.30;99.90
12634;DHT22;6382;48.614;8.880;2022-11-20T17:33:30;5.50;99.90
12634;DHT22;6382;48.614;8.880;2022-11-20T17:35:57;5.50;99.90
12634;DHT22;6382;48.614;8.880;2022-11-20T17:38:23;5.50;99.90